sensor_id;sensor_type;location;lat;lon;timestamp;pressure;altitude;pressure_sealevel;temperature;humidity
64628;BME280;68467;50.960;0.314;2023-04-02T00:01:24;99930.06;;;5.07;100.00
64628;BME280;68467;50.960;0.314;2023-04-02T00:04:25;99934.54;;;5.13;100.00
64628;BME280;68467;50.960;0.314;2023-04-02T00:06:55;99935.43;;;4.62;100.00
64628;BME280;68467;50.960;0.314;2023-04-02T00:09:28;99934.25;;;5.33;100.00
64628;BME280;68467;50.960;0.314;2023-04-02T00:11:57;99935.73;;;5.01;100.00
64628;BME280;68467;50.960;0.314;2023-04-02T00:14:27;99936.91;;;4.97;100.00
64628;BME280;68467;50.960;0.314;2023-04-02T00:16:56;99942.83;;;4.72;100.00
64628;BME280;68467;50.960;0.314;2023-04-02T00:19:29;99943.79;;;4.88;100.00
64628;BME280;68467;50.960;0.314;2023-04-02T00:21:58;99943.91;;;4.47;100.00
64628;BME280;68467;50.960;0.314;2023-04-02T00:24:27;99953.94;;;4.65;100.00
64628;BME280;68467;50.960;0.314;2023-04-02T00:26:55;99948.57;;;4.91;100.00
64628;BME280;68467;50.960;0.314;2023-04-02T00:29:22;99955.38;;;4.69;100.00
64628;BME280;68467;50.960;0.314;2023-04-02T00:31:50;99965.59;;;4.52;100.00
64628;BME280;68467;50.960;0.314;2023-04-02T00:34:20;99964.46;;;4.69;100.00
64628;BME280;68467;50.960;0.314;2023-04-02T00:36:49;99967.61;;;4.07;100.00
64628;BME280;68467;50.960;0.314;2023-04-02T00:39:20;99968.24;;;4.58;100.00
64628;BME280;68467;50.960;0.314;2023-04-02T00:41:50;99973.19;;;4.74;100.00
64628;BME280;68467;50.960;0.314;2023-04-02T00:44:19;99979.25;;;4.54;100.00
64628;BME280;68467;50.960;0.314;2023-04-02T00:46:47;99982.48;;;4.37;100.00
64628;BME280;68467;50.960;0.314;2023-04-02T00:49:21;99986.96;;;4.38;100.00
64628;BME280;68467;50.960;0.314;2023-04-02T00:51:52;99992.11;;;4.64;100.00
64628;BME280;68467;50.960;0.314;2023-04-02T00:54:22;99988.12;;;5.15;100.00
64628;BME280;68467;50.960;0.314;2023-04-02T00:56:53;99995.61;;;4.45;100.00
64628;BME280;68467;50.960;0.314;2023-04-02T00:59:27;100000.59;;;4.48;100.00
64628;BME280;68467;50.960;0.314;2023-04-02T01:01:59;100002.75;;;4.97;100.00
64628;BME280;68467;50.960;0.314;2023-04-02T01:04:31;100007.69;;;5.09;100.00
64628;BME280;68467;50.960;0.314;2023-04-02T01:07:02;100012.10;;;4.86;100.00
64628;BME280;68467;50.960;0.314;2023-04-02T01:09:42;100019.96;;;5.00;100.00
64628;BME280;68467;50.960;0.314;2023-04-02T01:12:26;100028.78;;;4.74;100.00
64628;BME280;68467;50.960;0.314;2023-04-02T01:14:59;100029.01;;;4.85;100.00
64628;BME280;68467;50.960;0.314;2023-04-02T01:17:38;100037.02;;;4.08;100.00
64628;BME280;68467;50.960;0.314;2023-04-02T01:20:25;100034.75;;;4.93;100.00
64628;BME280;68467;50.960;0.314;2023-04-02T01:23:01;100039.43;;;4.80;100.00
64628;BME280;68467;50.960;0.314;2023-04-02T01:25:38;100046.31;;;4.18;100.00
64628;BME280;68467;50.960;0.314;2023-04-02T01:28:11;100051.98;;;4.80;100.00
64628;BME280;68467;50.960;0.314;2023-04-02T01:30:44;100054.23;;;4.04;100.00
64628;BME280;68467;50.960;0.314;2023-04-02T01:33:11;100061.46;;;4.46;100.00
64628;BME280;68467;50.960;0.314;2023-04-02T01:35:43;100058.56;;;4.33;100.00
64628;BME280;68467;50.960;0.314;2023-04-02T01:38:13;100064.91;;;4.17;100.00
64628;BME280;68467;50.960;0.314;2023-04-02T01:40:48;100067.63;;;4.41;100.00
64628;BME280;68467;50.960;0.314;2023-04-02T01:43:24;100068.37;;;4.48;100.00
64628;BME280;68467;50.960;0.314;2023-04-02T01:45:56;100077.40;;;4.01;100.00
64628;BME280;68467;50.960;0.314;2023-04-02T01:48:28;100075.62;;;4.52;100.00
64628;BME280;68467;50.960;0.314;2023-04-02T01:50:57;100075.41;;;4.33;100.00
64628;BME280;68467;50.960;0.314;2023-04-02T01:53:27;100074.24;;;4.78;100.00
64628;BME280;68467;50.960;0.314;2023-04-02T01:55:58;100079.13;;;4.30;100.00
64628;BME280;68467;50.960;0.314;2023-04-02T01:58:27;100077.99;;;5.02;100.00
64628;BME280;68467;50.960;0.314;2023-04-02T02:00:59;100089.90;;;4.36;100.00
64628;BME280;68467;50.960;0.314;2023-04-02T02:03:28;100090.39;;;4.28;100.00
64628;BME280;68467;50.960;0.314;2023-04-02T02:05:56;100096.31;;;4.36;100.00
64628;BME280;68467;50.960;0.314;2023-04-02T02:08:31;100093.07;;;4.66;100.00
64628;BME280;68467;50.960;0.314;2023-04-02T02:10:59;100095.93;;;4.74;100.00
64628;BME280;68467;50.960;0.314;2023-04-02T02:13:28;100095.52;;;4.61;100.00
64628;BME280;68467;50.960;0.314;2023-04-02T02:15:57;100098.37;;;5.11;100.00
64628;BME280;68467;50.960;0.314;2023-04-02T02:18:25;100098.58;;;4.84;100.00
64628;BME280;68467;50.960;0.314;2023-04-02T02:20:53;100096.62;;;5.36;100.00
64628;BME280;68467;50.960;0.314;2023-04-02T02:23:23;100103.38;;;4.48;100.00
64628;BME280;68467;50.960;0.314;2023-04-02T02:25:50;100109.02;;;5.15;100.00
64628;BME280;68467;50.960;0.314;2023-04-02T02:28:22;100106.92;;;4.79;100.00
64628;BME280;68467;50.960;0.314;2023-04-02T02:30:54;100116.39;;;4.24;100.00
64628;BME280;68467;50.960;0.314;2023-04-02T02:33:25;100113.54;;;4.31;100.00
64628;BME280;68467;50.960;0.314;2023-04-02T02:35:55;100115.36;;;4.81;100.00
64628;BME280;68467;50.960;0.314;2023-04-02T02:38:39;100121.03;;;4.52;100.00
64628;BME280;68467;50.960;0.314;2023-04-02T02:41:14;100124.70;;;4.37;100.00
64628;BME280;68467;50.960;0.314;2023-04-02T02:43:47;100122.66;;;3.78;100.00
64628;BME280;68467;50.960;0.314;2023-04-02T02:46:17;100127.74;;;4.43;100.00
64628;BME280;68467;50.960;0.314;2023-04-02T02:48:47;100127.77;;;3.96;100.00
64628;BME280;68467;50.960;0.314;2023-04-02T02:51:22;100132.97;;;3.60;100.00
64628;BME280;68467;50.960;0.314;2023-04-02T02:53:55;100137.93;;;5.00;100.00
64628;BME280;68467;50.960;0.314;2023-04-02T02:56:25;100145.02;;;4.36;100.00
64628;BME280;68467;50.960;0.314;2023-04-02T02:58:53;100148.02;;;4.30;100.00
64628;BME280;68467;50.960;0.314;2023-04-02T03:01:20;100153.15;;;4.80;100.00
64628;BME280;68467;50.960;0.314;2023-04-02T03:03:48;100160.22;;;4.87;100.00
64628;BME280;68467;50.960;0.314;2023-04-02T03:06:19;100167.84;;;4.46;100.00
64628;BME280;68467;50.960;0.314;2023-04-02T03:08:51;100169.35;;;5.04;100.00
64628;BME280;68467;50.960;0.314;2023-04-02T03:11:26;100172.80;;;4.74;100.00
64628;BME280;68467;50.960;0.314;2023-04-02T03:14:04;100172.27;;;5.04;100.00
64628;BME280;68467;50.960;0.314;2023-04-02T03:16:38;100169.22;;;5.14;100.00
64628;BME280;68467;50.960;0.314;2023-04-02T03:19:19;100174.18;;;5.23;100.00
64628;BME280;68467;50.960;0.314;2023-04-02T03:21:54;100171.60;;;5.42;100.00
64628;BME280;68467;50.960;0.314;2023-04-02T03:24:29;100175.91;;;4.38;100.00
64628;BME280;68467;50.960;0.314;2023-04-02T03:27:02;100172.59;;;4.67;100.00
64628;BME280;68467;50.960;0.314;2023-04-02T03:29:34;100180.99;;;4.00;100.00
64628;BME280;68467;50.960;0.314;2023-04-02T03:32:10;100188.89;;;4.19;100.00
64628;BME280;68467;50.960;0.314;2023-04-02T03:34:41;100193.23;;;4.14;100.00
64628;BME280;68467;50.960;0.314;2023-04-02T03:37:14;100198.34;;;4.33;100.00
64628;BME280;68467;50.960;0.314;2023-04-02T03:39:46;100201.16;;;4.08;100.00
64628;BME280;68467;50.960;0.314;2023-04-02T03:42:21;100206.42;;;3.77;100.00
64628;BME280;68467;50.960;0.314;2023-04-02T03:44:50;100218.94;;;3.15;100.00
64628;BME280;68467;50.960;0.314;2023-04-02T03:47:25;100218.31;;;3.57;100.00
64628;BME280;68467;50.960;0.314;2023-04-02T03:50:00;100225.32;;;4.50;100.00
64628;BME280;68467;50.960;0.314;2023-04-02T03:52:29;100225.10;;;4.34;100.00
64628;BME280;68467;50.960;0.314;2023-04-02T03:54:59;100229.72;;;4.49;100.00
64628;BME280;68467;50.960;0.314;2023-04-02T03:57:32;100227.40;;;4.30;100.00
64628;BME280;68467;50.960;0.314;2023-04-02T04:00:05;100230.51;;;4.35;100.00
64628;BME280;68467;50.960;0.314;2023-04-02T04:02:42;100233.94;;;4.08;100.00
64628;BME280;68467;50.960;0.314;2023-04-02T04:05:22;100234.49;;;4.15;100.00
64628;BME280;68467;50.960;0.314;2023-04-02T04:07:52;100241.96;;;3.79;100.00
64628;BME280;68467;50.960;0.314;2023-04-02T04:10:23;100242.17;;;3.91;100.00
64628;BME280;68467;50.960;0.314;2023-04-02T04:12:54;100243.23;;;3.79;100.00
64628;BME280;68467;50.960;0.314;2023-04-02T04:15:27;100242.89;;;4.56;100.00
64628;BME280;68467;50.960;0.314;2023-04-02T04:17:59;100243.30;;;4.08;100.00
64628;BME280;68467;50.960;0.314;2023-04-02T04:20:33;100241.39;;;4.45;100.00
64628;BME280;68467;50.960;0.314;2023-04-02T04:23:15;100248.45;;;3.94;100.00
64628;BME280;68467;50.960;0.314;2023-04-02T04:25:44;100250.50;;;4.14;100.00
64628;BME280;68467;50.960;0.314;2023-04-02T04:28:20;100256.36;;;4.26;100.00
64628;BME280;68467;50.960;0.314;2023-04-02T04:30:51;100259.18;;;3.78;100.00
64628;BME280;68467;50.960;0.314;2023-04-02T04:33:23;100264.85;;;4.00;100.00
64628;BME280;68467;50.960;0.314;2023-04-02T04:35:54;100272.16;;;3.80;100.00
64628;BME280;68467;50.960;0.314;2023-04-02T04:38:30;100274.82;;;3.33;100.00
64628;BME280;68467;50.960;0.314;2023-04-02T04:41:03;100282.01;;;3.33;100.00
64628;BME280;68467;50.960;0.314;2023-04-02T04:43:39;100290.97;;;3.16;100.00
64628;BME280;68467;50.960;0.314;2023-04-02T04:46:12;100285.34;;;3.38;100.00
64628;BME280;68467;50.960;0.314;2023-04-02T04:48:47;100286.25;;;3.56;100.00
64628;BME280;68467;50.960;0.314;2023-04-02T04:51:19;100290.58;;;3.93;100.00
64628;BME280;68467;50.960;0.314;2023-04-02T04:53:49;100292.29;;;4.17;100.00
64628;BME280;68467;50.960;0.314;2023-04-02T04:56:21;100297.81;;;4.12;100.00
64628;BME280;68467;50.960;0.314;2023-04-02T04:58:52;100301.75;;;4.08;100.00
64628;BME280;68467;50.960;0.314;2023-04-02T05:01:23;100303.35;;;4.66;100.00
64628;BME280;68467;50.960;0.314;2023-04-02T05:03:58;100307.19;;;3.70;100.00
64628;BME280;68467;50.960;0.314;2023-04-02T05:06:36;100317.63;;;3.85;100.00
64628;BME280;68467;50.960;0.314;2023-04-02T05:09:12;100324.01;;;3.19;100.00
64628;BME280;68467;50.960;0.314;2023-04-02T05:11:44;100328.46;;;3.44;100.00
64628;BME280;68467;50.960;0.314;2023-04-02T05:14:20;100331.43;;;3.82;100.00
64628;BME280;68467;50.960;0.314;2023-04-02T05:16:55;100333.17;;;3.81;100.00
64628;BME280;68467;50.960;0.314;2023-04-02T05:19:29;100342.41;;;4.54;100.00
64628;BME280;68467;50.960;0.314;2023-04-02T05:22:11;100339.87;;;4.14;100.00
64628;BME280;68467;50.960;0.314;2023-04-02T05:24:50;100347.92;;;3.82;100.00
64628;BME280;68467;50.960;0.314;2023-04-02T05:27:28;100353.45;;;3.59;100.00
64628;BME280;68467;50.960;0.314;2023-04-02T05:30:03;100361.81;;;3.21;100.00
64628;BME280;68467;50.960;0.314;2023-04-02T05:32:36;100363.72;;;3.07;100.00
64628;BME280;68467;50.960;0.314;2023-04-02T05:35:14;100374.12;;;3.35;100.00
64628;BME280;68467;50.960;0.314;2023-04-02T05:37:43;100372.88;;;3.65;100.00
64628;BME280;68467;50.960;0.314;2023-04-02T05:40:14;100377.65;;;3.50;100.00
64628;BME280;68467;50.960;0.314;2023-04-02T05:42:48;100381.18;;;3.95;100.00
64628;BME280;68467;50.960;0.314;2023-04-02T05:45:24;100380.08;;;3.76;100.00
64628;BME280;68467;50.960;0.314;2023-04-02T05:47:56;100388.25;;;3.87;100.00
64628;BME280;68467;50.960;0.314;2023-04-02T05:50:28;100392.59;;;4.34;100.00
64628;BME280;68467;50.960;0.314;2023-04-02T05:53:01;100385.89;;;3.71;100.00
64628;BME280;68467;50.960;0.314;2023-04-02T05:55:38;100393.52;;;3.36;100.00
64628;BME280;68467;50.960;0.314;2023-04-02T05:58:15;100402.99;;;3.09;100.00
64628;BME280;68467;50.960;0.314;2023-04-02T06:00:53;100411.86;;;3.34;100.00
64628;BME280;68467;50.960;0.314;2023-04-02T06:03:30;100412.81;;;3.81;100.00
64628;BME280;68467;50.960;0.314;2023-04-02T06:06:05;100417.52;;;3.20;100.00
64628;BME280;68467;50.960;0.314;2023-04-02T06:08:39;100428.39;;;3.33;100.00
64628;BME280;68467;50.960;0.314;2023-04-02T06:11:10;100432.24;;;3.16;100.00
64628;BME280;68467;50.960;0.314;2023-04-02T06:13:39;100434.77;;;3.67;100.00
64628;BME280;68467;50.960;0.314;2023-04-02T06:16:08;100438.00;;;3.47;100.00
64628;BME280;68467;50.960;0.314;2023-04-02T06:18:38;100434.01;;;3.54;100.00
64628;BME280;68467;50.960;0.314;2023-04-02T06:21:09;100440.97;;;2.50;100.00
64628;BME280;68467;50.960;0.314;2023-04-02T06:23:42;100446.07;;;2.69;100.00
64628;BME280;68467;50.960;0.314;2023-04-02T06:26:17;100452.60;;;2.67;100.00
64628;BME280;68467;50.960;0.314;2023-04-02T06:28:48;100464.23;;;3.09;100.00
64628;BME280;68467;50.960;0.314;2023-04-02T06:31:24;100466.40;;;3.25;100.00
64628;BME280;68467;50.960;0.314;2023-04-02T06:33:54;100477.63;;;2.64;100.00
64628;BME280;68467;50.960;0.314;2023-04-02T06:36:22;100476.42;;;2.92;100.00
64628;BME280;68467;50.960;0.314;2023-04-02T06:38:50;100481.18;;;2.89;100.00
64628;BME280;68467;50.960;0.314;2023-04-02T06:41:20;100488.52;;;2.73;100.00
64628;BME280;68467;50.960;0.314;2023-04-02T06:43:52;100482.86;;;2.43;100.00
64628;BME280;68467;50.960;0.314;2023-04-02T06:46:25;100487.14;;;2.58;100.00
64628;BME280;68467;50.960;0.314;2023-04-02T06:49:01;100491.52;;;2.78;100.00
64628;BME280;68467;50.960;0.314;2023-04-02T06:51:30;100499.17;;;2.43;100.00
64628;BME280;68467;50.960;0.314;2023-04-02T06:53:59;100509.64;;;2.78;100.00
64628;BME280;68467;50.960;0.314;2023-04-02T06:56:37;100515.40;;;2.63;100.00
64628;BME280;68467;50.960;0.314;2023-04-02T06:59:07;100516.09;;;3.21;100.00
64628;BME280;68467;50.960;0.314;2023-04-02T07:01:37;100521.70;;;3.55;100.00
64628;BME280;68467;50.960;0.314;2023-04-02T07:04:05;100521.83;;;3.08;100.00
64628;BME280;68467;50.960;0.314;2023-04-02T07:06:32;100528.87;;;2.82;100.00
64628;BME280;68467;50.960;0.314;2023-04-02T07:08:59;100530.18;;;3.28;100.00
64628;BME280;68467;50.960;0.314;2023-04-02T07:11:26;100529.62;;;3.25;100.00
64628;BME280;68467;50.960;0.314;2023-04-02T07:13:53;100533.46;;;2.98;100.00
64628;BME280;68467;50.960;0.314;2023-04-02T07:16:22;100536.01;;;2.92;100.00
64628;BME280;68467;50.960;0.314;2023-04-02T07:18:51;100534.95;;;3.35;100.00
64628;BME280;68467;50.960;0.314;2023-04-02T07:21:18;100531.33;;;3.52;100.00
64628;BME280;68467;50.960;0.314;2023-04-02T07:23:45;100534.08;;;3.04;100.00
64628;BME280;68467;50.960;0.314;2023-04-02T07:26:14;100542.60;;;3.48;100.00
64628;BME280;68467;50.960;0.314;2023-04-02T07:28:41;100539.05;;;3.89;100.00
64628;BME280;68467;50.960;0.314;2023-04-02T07:31:15;100549.38;;;3.42;100.00
64628;BME280;68467;50.960;0.314;2023-04-02T07:33:43;100558.62;;;3.48;100.00
64628;BME280;68467;50.960;0.314;2023-04-02T07:36:14;100563.89;;;3.38;100.00
64628;BME280;68467;50.960;0.314;2023-04-02T07:38:41;100574.16;;;3.07;100.00
64628;BME280;68467;50.960;0.314;2023-04-02T07:41:09;100566.96;;;3.63;100.00
64628;BME280;68467;50.960;0.314;2023-04-02T07:43:37;100581.80;;;3.16;100.00
64628;BME280;68467;50.960;0.314;2023-04-02T07:46:06;100578.71;;;3.65;100.00
64628;BME280;68467;50.960;0.314;2023-04-02T07:48:34;100577.02;;;3.91;100.00
64628;BME280;68467;50.960;0.314;2023-04-02T07:51:01;100574.50;;;3.65;100.00
64628;BME280;68467;50.960;0.314;2023-04-02T07:53:30;100583.81;;;3.38;100.00
64628;BME280;68467;50.960;0.314;2023-04-02T07:55:59;100583.55;;;3.45;100.00
64628;BME280;68467;50.960;0.314;2023-04-02T07:58:27;100589.48;;;3.24;100.00
64628;BME280;68467;50.960;0.314;2023-04-02T08:00:54;100591.65;;;2.81;100.00
64628;BME280;68467;50.960;0.314;2023-04-02T08:03:22;100588.39;;;3.56;100.00
64628;BME280;68467;50.960;0.314;2023-04-02T08:05:51;100593.48;;;3.18;100.00
64628;BME280;68467;50.960;0.314;2023-04-02T08:08:19;100599.53;;;3.48;100.00
64628;BME280;68467;50.960;0.314;2023-04-02T08:10:47;100608.88;;;3.63;100.00
64628;BME280;68467;50.960;0.314;2023-04-02T08:13:16;100615.03;;;3.47;100.00
64628;BME280;68467;50.960;0.314;2023-04-02T08:15:44;100617.15;;;3.49;100.00
64628;BME280;68467;50.960;0.314;2023-04-02T08:18:11;100620.56;;;3.18;100.00
64628;BME280;68467;50.960;0.314;2023-04-02T08:20:39;100618.31;;;3.14;100.00
64628;BME280;68467;50.960;0.314;2023-04-02T08:23:12;100617.92;;;3.45;100.00
64628;BME280;68467;50.960;0.314;2023-04-02T08:25:39;100622.06;;;3.05;100.00
64628;BME280;68467;50.960;0.314;2023-04-02T08:28:07;100632.33;;;2.98;100.00
64628;BME280;68467;50.960;0.314;2023-04-02T08:30:34;100634.15;;;3.24;100.00
64628;BME280;68467;50.960;0.314;2023-04-02T08:33:02;100635.05;;;3.62;100.00
64628;BME280;68467;50.960;0.314;2023-04-02T08:35:29;100636.65;;;3.91;100.00
64628;BME280;68467;50.960;0.314;2023-04-02T08:37:56;100642.47;;;3.96;100.00
64628;BME280;68467;50.960;0.314;2023-04-02T08:40:30;100646.53;;;3.77;100.00
64628;BME280;68467;50.960;0.314;2023-04-02T08:43:24;100650.64;;;3.68;100.00
64628;BME280;68467;50.960;0.314;2023-04-02T08:46:04;100657.86;;;3.51;100.00
64628;BME280;68467;50.960;0.314;2023-04-02T08:48:36;100663.02;;;3.44;100.00
64628;BME280;68467;50.960;0.314;2023-04-02T08:51:05;100665.25;;;3.42;100.00
64628;BME280;68467;50.960;0.314;2023-04-02T08:53:36;100669.00;;;3.21;100.00
64628;BME280;68467;50.960;0.314;2023-04-02T08:56:08;100668.92;;;3.68;100.00
64628;BME280;68467;50.960;0.314;2023-04-02T08:58:40;100667.03;;;3.24;100.00
64628;BME280;68467;50.960;0.314;2023-04-02T09:01:17;100664.35;;;3.88;100.00
64628;BME280;68467;50.960;0.314;2023-04-02T09:03:48;100671.28;;;3.74;100.00
64628;BME280;68467;50.960;0.314;2023-04-02T09:06:18;100671.11;;;3.66;100.00
64628;BME280;68467;50.960;0.314;2023-04-02T09:08:47;100672.31;;;3.86;100.00
64628;BME280;68467;50.960;0.314;2023-04-02T09:11:22;100675.04;;;3.45;100.00
64628;BME280;68467;50.960;0.314;2023-04-02T09:13:54;100677.77;;;3.79;100.00
64628;BME280;68467;50.960;0.314;2023-04-02T09:16:33;100681.52;;;4.30;100.00
64628;BME280;68467;50.960;0.314;2023-04-02T09:19:13;100683.27;;;4.70;100.00
64628;BME280;68467;50.960;0.314;2023-04-02T09:21:44;100684.09;;;4.52;100.00
64628;BME280;68467;50.960;0.314;2023-04-02T09:24:13;100693.86;;;4.17;100.00
64628;BME280;68467;50.960;0.314;2023-04-02T09:26:40;100701.36;;;4.54;100.00
64628;BME280;68467;50.960;0.314;2023-04-02T09:29:42;100695.56;;;4.77;100.00
64628;BME280;68467;50.960;0.314;2023-04-02T09:32:36;100709.15;;;5.05;100.00
64628;BME280;68467;50.960;0.314;2023-04-02T09:35:10;100720.09;;;4.26;100.00
64628;BME280;68467;50.960;0.314;2023-04-02T09:37:39;100723.60;;;4.34;100.00
64628;BME280;68467;50.960;0.314;2023-04-02T09:40:24;100729.27;;;5.05;100.00
64628;BME280;68467;50.960;0.314;2023-04-02T09:43:04;100739.16;;;4.85;100.00
64628;BME280;68467;50.960;0.314;2023-04-02T09:45:32;100741.27;;;4.84;100.00
64628;BME280;68467;50.960;0.314;2023-04-02T09:47:59;100731.67;;;5.55;100.00
64628;BME280;68467;50.960;0.314;2023-04-02T09:50:29;100731.38;;;5.14;100.00
64628;BME280;68467;50.960;0.314;2023-04-02T09:52:57;100735.06;;;5.16;100.00
64628;BME280;68467;50.960;0.314;2023-04-02T09:55:26;100738.19;;;5.46;100.00
64628;BME280;68467;50.960;0.314;2023-04-02T09:58:26;100737.50;;;5.00;100.00
64628;BME280;68467;50.960;0.314;2023-04-02T10:00:53;100746.48;;;6.03;100.00
64628;BME280;68467;50.960;0.314;2023-04-02T10:03:23;100747.82;;;5.83;100.00
64628;BME280;68467;50.960;0.314;2023-04-02T10:06:04;100763.53;;;4.46;100.00
64628;BME280;68467;50.960;0.314;2023-04-02T10:08:32;100763.90;;;5.37;100.00
64628;BME280;68467;50.960;0.314;2023-04-02T10:11:01;100764.42;;;5.83;100.00
64628;BME280;68467;50.960;0.314;2023-04-02T10:13:32;100769.83;;;6.00;100.00
64628;BME280;68467;50.960;0.314;2023-04-02T10:16:04;100775.76;;;4.91;100.00
64628;BME280;68467;50.960;0.314;2023-04-02T10:18:40;100771.33;;;5.98;100.00
64628;BME280;68467;50.960;0.314;2023-04-02T10:21:12;100770.89;;;6.58;100.00
64628;BME280;68467;50.960;0.314;2023-04-02T10:23:41;100773.94;;;6.38;100.00
64628;BME280;68467;50.960;0.314;2023-04-02T10:26:21;100767.91;;;6.81;100.00
64628;BME280;68467;50.960;0.314;2023-04-02T10:29:03;100767.83;;;7.20;100.00
64628;BME280;68467;50.960;0.314;2023-04-02T10:31:41;100773.92;;;6.69;100.00
64628;BME280;68467;50.960;0.314;2023-04-02T10:34:20;100770.86;;;6.65;100.00
64628;BME280;68467;50.960;0.314;2023-04-02T10:36:52;100777.38;;;6.71;100.00
64628;BME280;68467;50.960;0.314;2023-04-02T10:39:23;100786.34;;;5.98;100.00
64628;BME280;68467;50.960;0.314;2023-04-02T10:41:58;100787.74;;;7.01;100.00
64628;BME280;68467;50.960;0.314;2023-04-02T10:44:40;100795.14;;;7.19;100.00
64628;BME280;68467;50.960;0.314;2023-04-02T10:47:35;100794.11;;;7.66;100.00
64628;BME280;68467;50.960;0.314;2023-04-02T10:50:13;100794.13;;;7.45;100.00
64628;BME280;68467;50.960;0.314;2023-04-02T10:52:47;100799.71;;;6.41;100.00
64628;BME280;68467;50.960;0.314;2023-04-02T10:55:21;100804.40;;;6.79;100.00
64628;BME280;68467;50.960;0.314;2023-04-02T10:57:53;100804.50;;;6.34;100.00
64628;BME280;68467;50.960;0.314;2023-04-02T11:00:25;100806.97;;;6.93;100.00
64628;BME280;68467;50.960;0.314;2023-04-02T11:02:57;100803.75;;;7.12;100.00
64628;BME280;68467;50.960;0.314;2023-04-02T11:05:32;100803.87;;;7.78;100.00
64628;BME280;68467;50.960;0.314;2023-04-02T11:08:12;100803.99;;;7.17;100.00
64628;BME280;68467;50.960;0.314;2023-04-02T11:10:46;100802.86;;;7.76;100.00
64628;BME280;68467;50.960;0.314;2023-04-02T11:13:20;100798.77;;;6.93;100.00
64628;BME280;68467;50.960;0.314;2023-04-02T11:15:50;100804.13;;;6.96;100.00
64628;BME280;68467;50.960;0.314;2023-04-02T11:18:23;100808.23;;;7.52;100.00
64628;BME280;68467;50.960;0.314;2023-04-02T11:20:57;100808.48;;;7.68;100.00
64628;BME280;68467;50.960;0.314;2023-04-02T11:23:28;100811.83;;;7.71;100.00
64628;BME280;68467;50.960;0.314;2023-04-02T11:26:39;100810.03;;;7.83;100.00
64628;BME280;68467;50.960;0.314;2023-04-02T11:29:14;100807.60;;;8.02;100.00
64628;BME280;68467;50.960;0.314;2023-04-02T11:31:43;100812.70;;;7.95;100.00
64628;BME280;68467;50.960;0.314;2023-04-02T11:34:14;100815.32;;;8.13;100.00
64628;BME280;68467;50.960;0.314;2023-04-02T11:37:33;100821.74;;;8.91;100.00
64628;BME280;68467;50.960;0.314;2023-04-02T11:40:02;100823.59;;;8.63;100.00
64628;BME280;68467;50.960;0.314;2023-04-02T11:42:34;100820.75;;;7.80;100.00
64628;BME280;68467;50.960;0.314;2023-04-02T11:45:52;100815.76;;;7.88;100.00
64628;BME280;68467;50.960;0.314;2023-04-02T11:48:29;100823.37;;;8.26;100.00
64628;BME280;68467;50.960;0.314;2023-04-02T11:50:57;100833.33;;;8.83;100.00
64628;BME280;68467;50.960;0.314;2023-04-02T11:53:29;100833.50;;;9.44;100.00
64628;BME280;68467;50.960;0.314;2023-04-02T11:56:08;100833.41;;;8.69;100.00
64628;BME280;68467;50.960;0.314;2023-04-02T11:58:55;100839.60;;;9.06;100.00
64628;BME280;68467;50.960;0.314;2023-04-02T12:01:38;100841.35;;;8.85;100.00
64628;BME280;68467;50.960;0.314;2023-04-02T12:04:43;100845.70;;;8.76;100.00
64628;BME280;68467;50.960;0.314;2023-04-02T12:07:31;100848.00;;;7.87;100.00
64628;BME280;68467;50.960;0.314;2023-04-02T12:10:03;100847.29;;;9.17;100.00
64628;BME280;68467;50.960;0.314;2023-04-02T12:12:34;100846.70;;;9.54;100.00
64628;BME280;68467;50.960;0.314;2023-04-02T12:15:04;100843.71;;;9.87;100.00
64628;BME280;68467;50.960;0.314;2023-04-02T12:17:34;100845.06;;;10.00;100.00
64628;BME280;68467;50.960;0.314;2023-04-02T12:20:03;100843.88;;;10.42;100.00
64628;BME280;68467;50.960;0.314;2023-04-02T12:22:47;100855.00;;;9.99;100.00
64628;BME280;68467;50.960;0.314;2023-04-02T12:25:24;100855.69;;;9.82;100.00
64628;BME280;68467;50.960;0.314;2023-04-02T12:28:03;100855.07;;;10.43;100.00
64628;BME280;68467;50.960;0.314;2023-04-02T12:30:31;100862.22;;;9.19;100.00
64628;BME280;68467;50.960;0.314;2023-04-02T12:33:14;100866.83;;;9.64;100.00
64628;BME280;68467;50.960;0.314;2023-04-02T12:35:43;100871.05;;;9.92;100.00
64628;BME280;68467;50.960;0.314;2023-04-02T12:38:20;100877.47;;;9.00;100.00
64628;BME280;68467;50.960;0.314;2023-04-02T12:40:53;100883.13;;;8.71;100.00
64628;BME280;68467;50.960;0.314;2023-04-02T12:43:24;100875.43;;;9.07;100.00
64628;BME280;68467;50.960;0.314;2023-04-02T12:45:52;100882.95;;;9.34;100.00
64628;BME280;68467;50.960;0.314;2023-04-02T12:48:20;100886.01;;;8.44;100.00
64628;BME280;68467;50.960;0.314;2023-04-02T12:50:48;100886.16;;;8.17;100.00
64628;BME280;68467;50.960;0.314;2023-04-02T12:53:20;100884.03;;;9.16;100.00
64628;BME280;68467;50.960;0.314;2023-04-02T12:55:48;100886.41;;;9.53;100.00
64628;BME280;68467;50.960;0.314;2023-04-02T12:58:25;100890.49;;;10.02;100.00
64628;BME280;68467;50.960;0.314;2023-04-02T13:01:08;100894.44;;;9.47;100.00
64628;BME280;68467;50.960;0.314;2023-04-02T13:03:36;100886.93;;;9.24;100.00
64628;BME280;68467;50.960;0.314;2023-04-02T13:06:17;100890.01;;;9.47;100.00
64628;BME280;68467;50.960;0.314;2023-04-02T13:08:45;100887.60;;;8.78;100.00
64628;BME280;68467;50.960;0.314;2023-04-02T13:11:13;100892.41;;;9.04;100.00
64628;BME280;68467;50.960;0.314;2023-04-02T13:13:42;100886.39;;;9.48;100.00
64628;BME280;68467;50.960;0.314;2023-04-02T13:16:26;100892.20;;;9.56;100.00
64628;BME280;68467;50.960;0.314;2023-04-02T13:19:10;100880.60;;;10.42;100.00
64628;BME280;68467;50.960;0.314;2023-04-02T13:21:37;100889.80;;;9.62;100.00